Time;durP1;ratioP1;P1;durP2;ratioP2;P2;SDS_P1;SDS_P2;PMS_P1;PMS_P2;Temp;Humidity;BMP_temperature;BMP_pressure;BME280_temperature;BME280_humidity;BME280_pressure;Samples;Min_cycle;Max_cycle;Signal;HPM_P1;HPM_P2
2023/05/25 00:00:32;;;;;;;4.93;2.30;;;10.60;99.90;;;;;;5059482;28;20069;-80
2023/05/25 00:02:58;;;;;;;5.60;2.60;;;10.60;99.90;;;;;;5057865;28;20028;-82
2023/05/25 00:05:26;;;;;;;4.25;2.00;;;10.60;99.90;;;;;;5065234;28;20173;-82
2023/05/25 00:07:52;;;;;;;4.03;2.05;;;10.60;99.90;;;;;;5075804;28;20023;-81
2023/05/25 00:10:18;;;;;;;4.63;2.13;;;10.60;99.90;;;;;;5066682;28;20024;-83
2023/05/25 00:12:43;;;;;;;7.25;2.20;;;10.60;99.90;;;;;;5064144;28;20030;-82
2023/05/25 00:15:09;;;;;;;5.30;2.20;;;10.60;99.90;;;;;;5059668;28;20020;-82
2023/05/25 00:17:36;;;;;;;7.50;2.92;;;10.50;99.90;;;;;;5058695;28;20913;-81
2023/05/25 00:20:08;;;;;;;4.03;1.77;;;10.60;99.90;;;;;;5074528;28;20105;-82
2023/05/25 00:22:37;;;;;;;5.80;2.15;;;10.60;99.90;;;;;;5074908;28;20119;-82
2023/05/25 00:25:04;;;;;;;7.75;2.60;;;10.50;99.90;;;;;;5060871;28;20040;-82
2023/05/25 00:27:30;;;;;;;5.32;2.20;;;10.50;99.90;;;;;;5063585;28;20024;-82
2023/05/25 00:29:55;;;;;;;5.07;2.08;;;10.50;99.90;;;;;;5064520;28;20055;-82
2023/05/25 00:32:21;;;;;;;5.90;2.13;;;10.40;99.90;;;;;;5073256;28;20470;-82
2023/05/25 00:34:47;;;;;;;6.45;2.90;;;10.40;99.90;;;;;;5075581;28;20035;-82
2023/05/25 00:37:13;;;;;;;5.20;2.38;;;10.40;99.90;;;;;;5060006;28;20020;-83
2023/05/25 00:39:38;;;;;;;4.82;2.03;;;10.40;99.90;;;;;;5064193;28;20033;-83
2023/05/25 00:42:05;;;;;;;6.30;2.30;;;10.30;99.90;;;;;;5063839;28;20035;-82
2023/05/25 00:44:31;;;;;;;7.22;2.33;;;10.30;99.90;;;;;;5074152;28;20132;-82
2023/05/25 00:46:58;;;;;;;4.72;2.33;;;10.30;99.90;;;;;;5064216;28;20103;-82
2023/05/25 00:49:24;;;;;;;5.97;2.50;;;10.30;99.90;;;;;;5074228;28;20050;-82
2023/05/25 00:51:51;;;;;;;6.22;2.53;;;10.20;99.90;;;;;;5075650;28;20060;-83
2023/05/25 00:54:18;;;;;;;4.35;2.22;;;10.20;99.90;;;;;;5076013;28;20444;-83
2023/05/25 00:56:48;;;;;;;7.28;2.22;;;10.20;99.90;;;;;;5074157;28;20035;-82
2023/05/25 00:59:25;;;;;;;5.70;2.35;;;10.10;99.90;;;;;;5073927;28;20029;-82
2023/05/25 01:01:54;;;;;;;4.38;1.98;;;10.10;99.90;;;;;;5056562;28;20095;-82
2023/05/25 01:04:22;;;;;;;5.63;2.42;;;10.10;99.90;;;;;;5074078;28;20043;-82
2023/05/25 01:06:49;;;;;;;6.13;2.30;;;10.10;99.90;;;;;;5078206;28;20016;-81
2023/05/25 01:09:18;;;;;;;5.18;2.75;;;10.00;99.90;;;;;;5075188;28;20123;-81
2023/05/25 01:11:49;;;;;;;7.07;2.45;;;10.00;99.90;;;;;;5072960;28;20082;-82
2023/05/25 01:14:18;;;;;;;5.68;2.22;;;10.00;99.90;;;;;;5073733;28;20036;-82
2023/05/25 01:16:44;;;;;;;4.63;2.53;;;10.00;99.90;;;;;;5062760;28;20067;-81
2023/05/25 01:19:10;;;;;;;4.93;1.95;;;10.00;99.90;;;;;;5058723;28;20049;-82
2023/05/25 01:21:49;;;;;;;4.18;1.95;;;9.90;99.90;;;;;;5063512;28;20416;-81
2023/05/25 01:24:32;;;;;;;5.20;2.25;;;9.90;99.90;;;;;;5059600;28;20525;-82
2023/05/25 01:27:05;;;;;;;9.00;2.40;;;9.90;99.90;;;;;;5073134;28;20052;-81
2023/05/25 01:29:33;;;;;;;3.55;2.17;;;9.90;99.90;;;;;;5057100;28;20039;-82
2023/05/25 01:32:00;;;;;;;6.45;2.42;;;9.80;99.90;;;;;;5063517;28;20043;-81
2023/05/25 01:34:27;;;;;;;4.30;2.30;;;9.80;99.90;;;;;;5055930;28;20051;-82
2023/05/25 01:36:53;;;;;;;4.78;2.35;;;9.80;99.90;;;;;;5073887;28;20099;-82
2023/05/25 01:39:21;;;;;;;4.43;2.10;;;9.80;99.90;;;;;;5062299;28;20089;-82
2023/05/25 01:41:46;;;;;;;5.50;2.50;;;9.80;99.90;;;;;;5072630;28;20024;-82
2023/05/25 01:44:12;;;;;;;4.47;2.13;;;9.70;99.90;;;;;;5061722;28;20047;-82
2023/05/25 01:46:39;;;;;;;6.63;2.17;;;9.70;99.90;;;;;;5062588;28;20016;-82
2023/05/25 01:49:22;;;;;;;4.13;2.03;;;9.70;99.90;;;;;;5054678;28;20363;-82
2023/05/25 01:52:03;;;;;;;4.93;2.30;;;9.70;99.90;;;;;;5072677;28;20116;-82
2023/05/25 01:54:41;;;;;;;4.68;2.10;;;9.70;99.90;;;;;;5061911;28;20024;-82
2023/05/25 01:57:11;;;;;;;4.78;2.25;;;9.70;99.90;;;;;;5057158;28;20028;-81
2023/05/25 01:59:38;;;;;;;5.38;2.28;;;9.60;99.90;;;;;;5061683;28;20020;-81
2023/05/25 02:02:05;;;;;;;5.28;2.25;;;9.60;99.90;;;;;;5070131;28;20039;-81
2023/05/25 02:04:31;;;;;;;5.10;2.50;;;9.60;99.90;;;;;;5072796;28;20312;-82
2023/05/25 02:06:56;;;;;;;6.80;2.85;;;9.60;99.90;;;;;;5062106;28;20068;-82
2023/05/25 02:09:22;;;;;;;4.63;2.22;;;9.60;99.90;;;;;;5064307;28;20549;-82
2023/05/25 02:11:48;;;;;;;6.38;2.20;;;9.60;99.90;;;;;;5057293;28;20609;-83
2023/05/25 02:14:14;;;;;;;5.05;2.30;;;9.50;99.90;;;;;;5073401;28;20503;-83
2023/05/25 02:16:40;;;;;;;5.43;2.25;;;9.50;99.90;;;;;;5061706;28;20035;-82
2023/05/25 02:19:06;;;;;;;4.40;2.17;;;9.50;99.90;;;;;;5055857;28;20036;-82
2023/05/25 02:21:31;;;;;;;5.97;2.20;;;9.50;99.90;;;;;;5074355;28;20579;-82
2023/05/25 02:23:57;;;;;;;5.35;2.30;;;9.40;99.90;;;;;;5061776;28;20098;-82
2023/05/25 02:26:23;;;;;;;3.80;2.03;;;9.50;99.90;;;;;;5056576;28;20564;-82
2023/05/25 02:28:50;;;;;;;4.05;1.98;;;9.40;99.90;;;;;;5071671;28;20040;-82
2023/05/25 02:31:15;;;;;;;3.40;1.98;;;9.40;99.90;;;;;;5061926;28;20101;-82
2023/05/25 02:33:41;;;;;;;4.03;1.65;;;9.40;99.90;;;;;;5064154;28;20641;-82
2023/05/25 02:36:07;;;;;;;3.45;1.85;;;9.30;99.90;;;;;;5073719;28;20031;-81
2023/05/25 02:38:33;;;;;;;4.18;1.88;;;9.30;99.90;;;;;;5062658;28;20135;-82
2023/05/25 02:40:58;;;;;;;4.10;2.00;;;9.30;99.90;;;;;;5061035;28;20027;-82
2023/05/25 02:43:24;;;;;;;4.10;1.73;;;9.30;99.90;;;;;;5072537;28;20028;-82
2023/05/25 02:45:50;;;;;;;3.75;1.50;;;9.30;99.90;;;;;;5054272;28;20434;-83
2023/05/25 02:48:15;;;;;;;2.97;1.67;;;9.20;99.90;;;;;;5072745;28;20690;-82
2023/05/25 02:50:44;;;;;;;3.33;1.83;;;9.20;99.90;;;;;;5074033;28;20440;-81
2023/05/25 02:53:10;;;;;;;5.32;2.38;;;9.20;99.90;;;;;;5073914;28;20043;-81
2023/05/25 02:55:39;;;;;;;4.35;2.00;;;9.20;99.90;;;;;;5056032;28;20418;-81
2023/05/25 02:58:04;;;;;;;5.07;2.08;;;9.10;99.90;;;;;;5061115;28;20048;-81
2023/05/25 03:00:30;;;;;;;4.45;2.25;;;9.10;99.90;;;;;;5074232;28;20150;-80
2023/05/25 03:02:56;;;;;;;4.55;2.05;;;9.10;99.90;;;;;;5062768;28;20031;-81
2023/05/25 03:05:21;;;;;;;4.85;2.30;;;9.10;99.90;;;;;;5072664;28;20044;-81
2023/05/25 03:07:47;;;;;;;6.68;2.42;;;9.00;99.90;;;;;;5074847;28;20614;-81
2023/05/25 03:10:13;;;;;;;5.85;2.25;;;9.00;99.90;;;;;;5060531;28;20482;-82
2023/05/25 03:12:39;;;;;;;4.38;2.20;;;9.00;99.90;;;;;;5074228;28;20031;-81
2023/05/25 03:15:05;;;;;;;6.20;2.40;;;9.00;99.90;;;;;;5066440;28;20024;-81
2023/05/25 03:17:30;;;;;;;6.95;2.33;;;9.00;99.90;;;;;;5060945;28;20023;-82
2023/05/25 03:19:56;;;;;;;5.70;1.80;;;9.00;99.90;;;;;;5061372;28;20025;-81
2023/05/25 03:22:21;;;;;;;7.45;2.75;;;9.00;99.90;;;;;;5058016;28;20482;-82
2023/05/25 03:24:48;;;;;;;4.13;1.92;;;9.00;99.90;;;;;;5060059;28;20082;-82
2023/05/25 03:27:13;;;;;;;5.45;2.50;;;9.00;99.90;;;;;;5053789;28;20164;-82
2023/05/25 03:29:39;;;;;;;4.45;2.17;;;9.00;99.90;;;;;;5047784;28;20051;-81
2023/05/25 03:32:05;;;;;;;4.40;1.80;;;9.00;99.90;;;;;;5056216;28;20729;-82
2023/05/25 03:34:33;;;;;;;6.65;2.10;;;9.00;99.90;;;;;;5065480;28;20037;-82
2023/05/25 03:36:59;;;;;;;4.80;1.95;;;9.00;99.90;;;;;;5055777;28;20494;-82
2023/05/25 03:39:24;;;;;;;4.80;1.98;;;9.00;99.90;;;;;;5054488;28;20054;-81
2023/05/25 03:41:50;;;;;;;4.32;2.10;;;9.00;99.90;;;;;;5065773;28;20028;-81
2023/05/25 03:44:16;;;;;;;4.10;1.85;;;9.00;99.90;;;;;;5060168;28;20030;-81
2023/05/25 03:46:41;;;;;;;3.20;1.80;;;9.00;99.90;;;;;;5064794;28;20144;-82
2023/05/25 03:49:12;;;;;;;5.72;2.55;;;9.00;99.90;;;;;;5064559;28;20119;-82
2023/05/25 03:51:38;;;;;;;3.53;1.63;;;9.00;99.90;;;;;;5056810;28;20032;-82
2023/05/25 03:54:03;;;;;;;4.95;2.03;;;9.00;99.90;;;;;;5059133;28;20021;-82
2023/05/25 03:56:30;;;;;;;4.75;2.00;;;9.00;99.90;;;;;;5057956;28;20535;-81
2023/05/25 03:58:55;;;;;;;4.15;1.80;;;9.00;99.90;;;;;;5055970;28;20024;-82
2023/05/25 04:01:21;;;;;;;4.60;1.80;;;9.00;99.90;;;;;;5060019;28;20021;-82
2023/05/25 04:03:46;;;;;;;6.57;2.20;;;9.00;99.90;;;;;;5058714;28;20040;-81
2023/05/25 04:06:12;;;;;;;4.82;2.30;;;9.00;99.90;;;;;;5054885;28;20051;-82
2023/05/25 04:08:39;;;;;;;5.38;2.30;;;9.00;99.90;;;;;;5059739;28;20084;-82
2023/05/25 04:11:05;;;;;;;6.35;2.47;;;9.10;99.90;;;;;;5053687;28;20124;-82
2023/05/25 04:13:34;;;;;;;5.95;2.17;;;9.10;99.90;;;;;;5056037;28;20810;-82
2023/05/25 04:16:00;;;;;;;5.45;2.20;;;9.10;99.90;;;;;;5055458;28;22310;-81
2023/05/25 04:18:26;;;;;;;8.00;2.53;;;9.10;99.90;;;;;;5054748;28;20065;-82
2023/05/25 04:20:51;;;;;;;6.72;2.40;;;9.10;99.90;;;;;;5054364;28;20410;-81
2023/05/25 04:23:18;;;;;;;6.43;2.70;;;9.20;99.90;;;;;;5072286;28;20039;-82
2023/05/25 04:25:44;;;;;;;4.85;2.70;;;9.20;99.90;;;;;;5057936;28;20067;-82
2023/05/25 04:28:11;;;;;;;4.88;2.40;;;9.20;99.90;;;;;;5073651;28;20059;-82
2023/05/25 04:30:36;;;;;;;5.85;2.42;;;9.30;99.90;;;;;;5065094;28;20024;-82
2023/05/25 04:33:02;;;;;;;5.50;2.70;;;9.30;99.90;;;;;;5075404;28;20085;-82
2023/05/25 04:35:30;;;;;;;5.32;2.22;;;9.30;99.90;;;;;;5060232;28;20081;-82
2023/05/25 04:37:56;;;;;;;6.20;2.67;;;9.40;99.90;;;;;;5061088;28;20060;-82
2023/05/25 04:40:21;;;;;;;7.40;2.38;;;9.40;99.90;;;;;;5058893;28;20542;-82
2023/05/25 04:42:47;;;;;;;5.97;2.75;;;9.50;99.90;;;;;;5058336;28;20055;-82
2023/05/25 04:45:16;;;;;;;6.55;2.47;;;9.50;99.90;;;;;;5074050;28;20040;-82
2023/05/25 04:47:42;;;;;;;5.40;2.60;;;9.60;99.90;;;;;;5076479;28;20462;-82
2023/05/25 04:50:09;;;;;;;6.95;3.42;;;9.60;99.90;;;;;;5075302;28;20112;-82
2023/05/25 04:52:35;;;;;;;6.05;3.05;;;9.60;99.90;;;;;;5059024;28;20025;-83
2023/05/25 04:55:01;;;;;;;6.05;3.03;;;9.70;99.90;;;;;;5073761;28;20032;-82
2023/05/25 04:57:27;;;;;;;6.40;3.17;;;9.70;99.90;;;;;;5074336;28;20021;-81
2023/05/25 04:59:53;;;;;;;8.63;3.58;;;9.70;99.90;;;;;;5058882;28;20031;-82
2023/05/25 05:02:19;;;;;;;6.80;3.42;;;9.80;99.90;;;;;;5073841;28;20021;-82
2023/05/25 05:04:45;;;;;;;5.95;3.25;;;9.80;99.90;;;;;;5075279;28;20051;-82
2023/05/25 05:07:10;;;;;;;7.18;2.97;;;9.90;99.90;;;;;;5075328;28;20079;-82
2023/05/25 05:09:36;;;;;;;8.10;3.30;;;9.90;99.90;;;;;;5064832;28;20035;-82
2023/05/25 05:12:02;;;;;;;6.72;3.45;;;9.90;99.90;;;;;;5074284;28;20043;-83
2023/05/25 05:14:28;;;;;;;7.00;2.70;;;10.00;99.90;;;;;;5058517;28;20039;-82
2023/05/25 05:16:53;;;;;;;7.55;2.58;;;10.00;99.90;;;;;;5074785;28;20687;-82
2023/05/25 05:19:19;;;;;;;5.63;2.83;;;10.10;99.90;;;;;;5064168;28;20483;-82
2023/05/25 05:21:45;;;;;;;6.43;3.00;;;10.10;99.90;;;;;;5059594;28;20025;-82
2023/05/25 05:24:10;;;;;;;7.75;3.15;;;10.10;99.90;;;;;;5062893;28;20040;-82
2023/05/25 05:26:38;;;;;;;5.63;3.00;;;10.20;99.90;;;;;;5062167;28;20032;-81
2023/05/25 05:29:04;;;;;;;9.10;3.30;;;10.20;99.90;;;;;;5073891;28;20036;-82
2023/05/25 05:31:30;;;;;;;5.60;3.53;;;10.30;99.90;;;;;;5065497;28;20038;-82
2023/05/25 05:33:56;;;;;;;9.48;3.25;;;10.30;99.90;;;;;;5073187;28;20024;-81
2023/05/25 05:36:22;;;;;;;6.63;3.33;;;10.40;99.90;;;;;;5060255;28;20047;-81
2023/05/25 05:38:47;;;;;;;9.40;3.75;;;10.40;99.90;;;;;;5062689;28;20019;-81
2023/05/25 05:41:13;;;;;;;11.73;4.35;;;10.50;99.90;;;;;;5056716;28;20043;-82
2023/05/25 05:43:41;;;;;;;8.70;3.50;;;10.50;99.90;;;;;;5065900;28;20668;-81
2023/05/25 05:46:08;;;;;;;7.53;3.75;;;10.60;99.90;;;;;;5062620;28;20058;-82
2023/05/25 05:48:34;;;;;;;10.55;4.30;;;10.70;99.90;;;;;;5074700;28;20035;-81
2023/05/25 05:51:00;;;;;;;8.43;3.72;;;10.90;99.90;;;;;;5059689;28;20039;-82
2023/05/25 05:53:25;;;;;;;9.68;3.60;;;11.00;99.90;;;;;;5054275;28;20029;-81
2023/05/25 05:55:56;;;;;;;6.80;3.55;;;11.10;99.90;;;;;;5071426;28;20131;-82
2023/05/25 05:58:25;;;;;;;7.20;3.55;;;11.10;99.90;;;;;;5070531;28;20031;-80
2023/05/25 06:00:52;;;;;;;7.40;3.65;;;11.20;99.90;;;;;;5059542;28;20054;-82
2023/05/25 06:03:17;;;;;;;6.57;3.67;;;11.20;99.90;;;;;;5059384;28;20029;-82
2023/05/25 06:05:43;;;;;;;10.05;3.47;;;11.30;99.90;;;;;;5060752;28;20552;-81
2023/05/25 06:08:09;;;;;;;6.68;3.47;;;11.30;99.90;;;;;;5052841;28;20055;-82
2023/05/25 06:10:35;;;;;;;8.98;3.50;;;11.30;99.90;;;;;;5059938;28;20056;-81
2023/05/25 06:13:00;;;;;;;7.18;3.10;;;11.40;99.90;;;;;;5053425;28;20063;-81
2023/05/25 06:15:26;;;;;;;4.97;2.80;;;11.40;99.90;;;;;;5061814;28;20028;-82
2023/05/25 06:17:51;;;;;;;8.18;3.22;;;11.40;99.90;;;;;;5055501;28;20437;-82
2023/05/25 06:20:17;;;;;;;7.30;3.35;;;11.60;99.90;;;;;;5061456;28;20048;-82
2023/05/25 06:22:42;;;;;;;7.57;3.15;;;11.60;99.90;;;;;;5060446;28;20136;-83
2023/05/25 06:25:09;;;;;;;6.53;3.22;;;11.70;99.90;;;;;;5060907;28;20502;-82
2023/05/25 06:27:35;;;;;;;10.40;3.58;;;11.80;99.90;;;;;;5059404;28;20013;-82
2023/05/25 06:30:01;;;;;;;9.55;3.97;;;11.90;99.90;;;;;;5070023;28;20036;-83
2023/05/25 06:32:26;;;;;;;11.98;4.30;;;11.90;99.90;;;;;;5071697;28;20147;-82
2023/05/25 06:34:52;;;;;;;8.90;3.40;;;11.90;99.90;;;;;;5071435;28;20028;-82
2023/05/25 06:37:17;;;;;;;9.73;3.88;;;12.00;99.90;;;;;;5070603;28;20039;-82
2023/05/25 06:39:43;;;;;;;7.53;3.50;;;12.00;99.90;;;;;;5058750;28;20549;-82
2023/05/25 06:42:11;;;;;;;5.85;3.10;;;12.10;99.90;;;;;;5070849;28;20040;-82
2023/05/25 06:44:37;;;;;;;7.13;3.40;;;12.20;99.90;;;;;;5055005;28;20040;-82
2023/05/25 06:47:03;;;;;;;7.40;3.28;;;12.20;99.90;;;;;;5068493;28;20431;-83
2023/05/25 06:49:29;;;;;;;8.13;3.45;;;12.30;99.90;;;;;;5071731;28;20025;-82
2023/05/25 06:51:55;;;;;;;6.93;3.13;;;12.40;99.90;;;;;;5054619;28;20028;-83
2023/05/25 06:54:20;;;;;;;7.78;3.30;;;12.50;99.90;;;;;;5060497;28;20032;-83
2023/05/25 06:56:46;;;;;;;6.72;3.25;;;12.60;99.90;;;;;;5059880;28;20143;-84
2023/05/25 06:59:11;;;;;;;8.15;2.72;;;12.80;99.90;;;;;;5053770;28;20049;-84
2023/05/25 07:01:37;;;;;;;6.70;2.60;;;13.00;99.90;;;;;;5072576;28;20024;-82
2023/05/25 07:04:02;;;;;;;5.00;2.30;;;13.20;99.90;;;;;;5070590;28;20052;-83
2023/05/25 07:06:28;;;;;;;5.35;2.75;;;13.40;99.90;;;;;;5069673;28;20150;-82
2023/05/25 07:08:54;;;;;;;6.15;2.55;;;13.60;99.90;;;;;;5069413;28;20020;-81
2023/05/25 07:11:20;;;;;;;7.78;3.47;;;13.80;99.90;;;;;;5071357;28;20031;-81
2023/05/25 07:13:47;;;;;;;8.02;2.83;;;14.00;99.90;;;;;;5059686;28;20024;-81
2023/05/25 07:16:13;;;;;;;8.48;3.65;;;14.10;99.90;;;;;;5070065;28;20355;-81
2023/05/25 07:18:42;;;;;;;8.20;2.92;;;14.10;99.90;;;;;;5059817;28;20039;-81
2023/05/25 07:21:10;;;;;;;6.28;2.88;;;14.20;99.90;;;;;;5052440;28;20386;-80
2023/05/25 07:23:37;;;;;;;8.43;3.83;;;14.40;99.90;;;;;;5058395;28;20052;-82
2023/05/25 07:26:02;;;;;;;7.25;3.53;;;14.40;99.90;;;;;;5068113;28;20063;-81
2023/05/25 07:28:28;;;;;;;11.25;4.00;;;14.40;99.90;;;;;;5054431;28;20553;-82
2023/05/25 07:30:53;;;;;;;7.20;2.90;;;14.40;99.90;;;;;;5069754;28;20426;-82
2023/05/25 07:33:19;;;;;;;8.73;2.63;;;14.40;99.90;;;;;;5058328;28;20020;-83
2023/05/25 07:35:44;;;;;;;6.78;2.83;;;14.50;99.90;;;;;;5053699;28;20035;-83
2023/05/25 07:38:10;;;;;;;6.10;2.60;;;14.60;99.90;;;;;;5068013;28;20024;-82
2023/05/25 07:40:36;;;;;;;7.10;2.58;;;14.60;99.90;;;;;;5059554;28;20024;-80
2023/05/25 07:43:01;;;;;;;10.32;2.80;;;14.60;99.90;;;;;;5071104;28;20085;-83
2023/05/25 07:45:27;;;;;;;7.18;2.72;;;14.70;99.90;;;;;;5071788;28;20056;-83
2023/05/25 07:47:52;;;;;;;8.23;2.50;;;14.90;99.90;;;;;;5058631;28;20024;-84
2023/05/25 07:50:18;;;;;;;6.63;2.40;;;15.00;99.90;;;;;;5068338;28;20150;-82
2023/05/25 07:52:45;;;;;;;8.15;2.35;;;15.10;99.90;;;;;;5070548;28;20972;-83
2023/05/25 07:55:10;;;;;;;4.90;2.13;;;15.20;99.90;;;;;;5052813;28;20028;-83
2023/05/25 07:57:36;;;;;;;7.35;2.30;;;15.30;99.90;;;;;;5054659;28;20335;-83
2023/05/25 08:00:05;;;;;;;6.82;2.15;;;15.40;99.90;;;;;;5057951;28;20036;-83
2023/05/25 08:02:30;;;;;;;8.20;2.70;;;15.50;99.90;;;;;;5065351;28;20017;-83
2023/05/25 08:04:56;;;;;;;7.53;2.00;;;15.60;99.90;;;;;;5060371;28;20048;-84
2023/05/25 08:07:23;;;;;;;5.95;2.03;;;15.70;99.90;;;;;;5058843;28;20016;-84
2023/05/25 08:09:49;;;;;;;8.25;2.15;;;15.90;99.90;;;;;;5074866;28;20047;-84
2023/05/25 08:12:15;;;;;;;4.90;1.95;;;16.10;99.90;;;;;;5077702;28;20099;-86
2023/05/25 08:14:40;;;;;;;5.60;2.20;;;16.30;99.90;;;;;;5077238;28;20225;-85
2023/05/25 08:17:06;;;;;;;7.32;2.22;;;16.40;99.90;;;;;;5064577;28;20538;-85
2023/05/25 08:19:31;;;;;;;6.28;2.08;;;16.50;99.90;;;;;;5060443;28;20089;-85
2023/05/25 08:21:58;;;;;;;6.80;2.22;;;16.60;99.90;;;;;;5074380;28;20035;-85
2023/05/25 08:24:23;;;;;;;5.80;2.63;;;16.60;99.90;;;;;;5074986;28;20048;-83
2023/05/25 08:26:49;;;;;;;7.00;2.58;;;16.60;99.90;;;;;;5077327;28;20028;-84
2023/05/25 08:29:15;;;;;;;5.85;2.10;;;16.60;99.90;;;;;;5075831;28;20031;-83
2023/05/25 08:31:42;;;;;;;6.95;2.00;;;16.40;99.90;;;;;;5058508;28;20028;-84
2023/05/25 08:34:08;;;;;;;6.32;2.25;;;16.30;99.90;;;;;;5063544;28;20485;-84
2023/05/25 08:36:35;;;;;;;6.97;2.47;;;16.30;99.90;;;;;;5073713;28;20032;-84
2023/05/25 08:39:01;;;;;;;6.75;1.83;;;16.30;99.90;;;;;;5074918;28;20028;-84
2023/05/25 08:41:28;;;;;;;6.22;2.30;;;16.30;99.90;;;;;;5076180;28;20493;-84
2023/05/25 08:43:53;;;;;;;6.13;2.20;;;16.50;99.90;;;;;;5076861;28;20708;-84
2023/05/25 08:46:28;;;;;;;8.23;2.60;;;16.50;99.90;;;;;;5075650;28;20050;-86
2023/05/25 08:49:16;;;;;;;8.90;2.50;;;16.60;99.90;;;;;;5060191;28;20115;-90
2023/05/25 08:51:42;;;;;;;6.72;2.20;;;16.70;99.90;;;;;;5063749;28;20123;-85
2023/05/25 08:54:11;;;;;;;5.60;2.30;;;16.90;99.90;;;;;;5059315;28;20122;-88
2023/05/25 08:56:51;;;;;;;7.47;2.47;;;17.00;99.90;;;;;;5065625;28;20037;-87
2023/05/25 08:59:31;;;;;;;6.85;2.45;;;16.90;99.90;;;;;;5061693;28;20017;-85
2023/05/25 09:02:15;;;;;;;6.50;2.47;;;16.90;99.90;;;;;;5063977;28;20131;-84
2023/05/25 09:04:42;;;;;;;7.18;2.17;;;16.90;99.90;;;;;;5057776;28;20040;-84
2023/05/25 09:07:08;;;;;;;6.72;2.28;;;17.00;99.90;;;;;;5059903;28;20070;-88
2023/05/25 09:09:35;;;;;;;7.88;2.38;;;17.20;99.90;;;;;;5058439;28;20123;-87
2023/05/25 09:12:03;;;;;;;11.55;2.90;;;17.40;99.90;;;;;;5077057;28;20052;-87
2023/05/25 09:14:29;;;;;;;5.70;2.53;;;17.50;99.90;;;;;;5063724;28;20028;-83
2023/05/25 09:16:57;;;;;;;7.85;2.63;;;17.50;99.90;;;;;;5073408;28;20028;-84
2023/05/25 09:19:22;;;;;;;5.05;2.22;;;17.50;99.90;;;;;;5073172;28;20466;-85
2023/05/25 09:21:48;;;;;;;6.55;2.38;;;17.50;99.90;;;;;;5063505;28;20048;-84
2023/05/25 09:24:15;;;;;;;6.85;2.08;;;17.60;99.90;;;;;;5072751;28;20036;-84
2023/05/25 09:26:43;;;;;;;7.00;2.28;;;17.60;99.90;;;;;;5060320;28;20427;-85
2023/05/25 09:29:08;;;;;;;6.00;2.20;;;17.50;99.90;;;;;;5063384;28;20020;-84
2023/05/25 09:31:35;;;;;;;5.03;1.92;;;17.30;99.90;;;;;;5058781;28;20497;-83
2023/05/25 09:34:00;;;;;;;6.05;2.28;;;17.10;99.90;;;;;;5072541;28;20063;-84
2023/05/25 09:36:26;;;;;;;6.57;2.17;;;17.00;99.90;;;;;;5054961;28;20925;-85
2023/05/25 09:38:53;;;;;;;4.70;2.17;;;16.80;99.90;;;;;;5058153;28;20031;-84
2023/05/25 09:41:19;;;;;;;5.13;1.95;;;17.20;99.90;;;;;;5064570;28;20056;-84
2023/05/25 09:43:46;;;;;;;6.18;2.38;;;18.00;99.90;;;;;;5065268;28;20112;-84
2023/05/25 09:46:12;;;;;;;5.00;2.30;;;18.30;99.90;;;;;;5072321;28;20020;-84
2023/05/25 09:48:38;;;;;;;7.03;2.40;;;19.20;99.90;;;;;;5062962;28;20024;-84
2023/05/25 09:51:07;;;;;;;5.18;2.10;;;20.10;99.90;;;;;;5058401;28;20070;-84
2023/05/25 09:53:33;;;;;;;6.00;2.05;;;20.70;99.90;;;;;;5058776;28;20024;-84
2023/05/25 09:56:00;;;;;;;6.63;2.20;;;21.20;99.90;;;;;;5074200;28;20587;-84
2023/05/25 09:58:26;;;;;;;7.18;2.28;;;22.00;99.90;;;;;;5059730;28;20024;-84
2023/05/25 10:00:53;;;;;;;4.93;1.95;;;22.70;99.90;;;;;;5072467;28;20077;-83
2023/05/25 10:03:20;;;;;;;6.18;2.75;;;23.20;99.90;;;;;;5072977;28;20485;-85
2023/05/25 10:05:47;;;;;;;5.75;2.00;;;22.70;99.90;;;;;;5062506;28;20114;-86
2023/05/25 10:08:16;;;;;;;5.43;1.90;;;22.00;99.90;;;;;;5063403;28;20118;-85
2023/05/25 10:10:43;;;;;;;4.90;1.95;;;21.20;99.90;;;;;;5062389;28;20542;-84
2023/05/25 10:13:09;;;;;;;4.13;1.90;;;20.60;99.90;;;;;;5060128;28;20024;-84
2023/05/25 10:15:42;;;;;;;5.55;2.00;;;20.20;99.90;;;;;;5057390;28;20474;-84
2023/05/25 10:18:08;;;;;;;5.40;1.90;;;19.80;99.90;;;;;;5074350;28;20058;-85
2023/05/25 10:20:35;;;;;;;5.60;1.90;;;19.40;99.90;;;;;;5056195;28;20056;-85
2023/05/25 10:23:08;;;;;;;6.53;2.35;;;19.10;99.90;;;;;;5052205;28;20150;-82
2023/05/25 10:25:42;;;;;;;4.57;1.98;;;19.10;99.90;;;;;;5053685;28;20062;-83
2023/05/25 10:28:17;;;;;;;4.47;2.08;;;19.30;99.90;;;;;;5054790;28;20082;-86
2023/05/25 10:30:43;;;;;;;3.90;1.50;;;20.40;99.90;;;;;;5054209;28;20588;-87
2023/05/25 10:33:09;;;;;;;6.20;2.17;;;21.40;99.90;;;;;;5051826;28;20024;-86
2023/05/25 10:35:38;;;;;;;4.20;2.03;;;21.40;99.90;;;;;;5052593;28;20410;-87
2023/05/25 10:38:04;;;;;;;4.75;1.90;;;21.10;99.90;;;;;;5051974;28;20029;-85
2023/05/25 10:40:31;;;;;;;5.10;1.67;;;20.90;99.90;;;;;;5053779;28;20501;-85
2023/05/25 10:42:57;;;;;;;4.05;1.80;;;21.80;99.90;;;;;;5057506;28;20417;-84
2023/05/25 10:45:23;;;;;;;5.78;2.05;;;23.00;99.90;;;;;;5052543;28;20033;-84
2023/05/25 10:47:49;;;;;;;4.35;1.92;;;23.90;99.90;;;;;;5051956;28;20509;-85
2023/05/25 10:50:21;;;;;;;4.60;1.85;;;24.60;98.90;;;;;;5051093;28;20021;-85
2023/05/25 10:53:00;;;;;;;2.92;1.50;;;24.00;98.70;;;;;;5052790;28;20595;-84
2023/05/25 10:55:30;;;;;;;3.38;1.63;;;23.50;99.40;;;;;;5053353;28;20090;-85
2023/05/25 10:58:11;;;;;;;3.50;1.63;;;23.20;99.50;;;;;;5061384;28;20028;-84
2023/05/25 11:00:37;;;;;;;5.70;2.00;;;22.90;99.80;;;;;;5053031;28;20472;-84
2023/05/25 11:03:03;;;;;;;4.65;1.75;;;22.50;99.50;;;;;;5068260;28;20537;-84
2023/05/25 11:05:30;;;;;;;6.05;2.20;;;21.90;99.50;;;;;;5052079;28;20041;-83
2023/05/25 11:07:57;;;;;;;3.90;1.63;;;21.40;99.60;;;;;;5052232;28;20056;-85
2023/05/25 11:10:41;;;;;;;5.45;2.20;;;20.90;99.90;;;;;;5052811;28;20029;-84
2023/05/25 11:13:30;;;;;;;3.65;2.00;;;20.40;99.90;;;;;;5052405;28;20453;-82
2023/05/25 11:16:16;;;;;;;5.20;1.95;;;20.00;99.90;;;;;;5051683;28;20052;-84
2023/05/25 11:18:42;;;;;;;3.85;1.50;;;19.70;99.90;;;;;;5053106;28;20470;-85
2023/05/25 11:21:20;;;;;;;3.88;1.65;;;19.70;99.90;;;;;;5051157;28;20863;-83
2023/05/25 11:24:05;;;;;;;4.43;1.70;;;20.10;99.90;;;;;;5031015;28;20033;-84
2023/05/25 11:26:34;;;;;;;3.33;1.80;;;21.30;99.90;;;;;;5032214;28;20029;-83
2023/05/25 11:29:10;;;;;;;3.97;1.70;;;21.80;99.90;;;;;;5025722;28;20088;-85
2023/05/25 11:31:36;;;;;;;5.20;1.73;;;21.80;99.70;;;;;;5030333;28;20406;-85
2023/05/25 11:34:06;;;;;;;2.88;1.52;;;21.40;99.90;;;;;;5028146;28;20323;-83
2023/05/25 11:36:33;;;;;;;4.22;1.65;;;21.10;99.80;;;;;;5033355;28;20026;-83
2023/05/25 11:39:02;;;;;;;3.72;1.20;;;20.90;99.90;;;;;;5029358;28;20048;-83
2023/05/25 11:41:28;;;;;;;3.35;1.45;;;20.90;99.90;;;;;;5029121;28;20109;-83
2023/05/25 11:43:54;;;;;;;5.10;1.63;;;21.10;99.90;;;;;;5032955;28;20133;-83
2023/05/25 11:46:21;;;;;;;3.92;1.55;;;21.60;99.90;;;;;;5033537;28;20126;-84
2023/05/25 11:48:51;;;;;;;3.80;1.48;;;22.20;99.70;;;;;;5032385;28;20025;-84
2023/05/25 11:51:19;;;;;;;4.90;1.75;;;22.40;99.30;;;;;;5033375;28;20064;-84
2023/05/25 11:53:45;;;;;;;4.72;1.42;;;22.50;98.80;;;;;;5033923;28;20072;-84
2023/05/25 11:56:12;;;;;;;4.47;1.40;;;22.60;98.60;;;;;;5034423;28;20032;-84
2023/05/25 11:58:39;;;;;;;4.85;1.83;;;23.30;98.30;;;;;;5029360;28;20074;-83
2023/05/25 12:01:17;;;;;;;3.42;1.33;;;24.00;97.90;;;;;;5028955;28;20029;-84
2023/05/25 12:03:54;;;;;;;3.72;1.70;;;24.90;97.30;;;;;;5035046;28;20508;-83
2023/05/25 12:06:32;;;;;;;5.57;1.80;;;25.50;96.80;;;;;;5029473;28;20133;-83
2023/05/25 12:09:00;;;;;;;3.55;1.50;;;25.30;96.10;;;;;;5035663;28;20018;-83
2023/05/25 12:11:26;;;;;;;4.15;1.80;;;24.80;96.40;;;;;;5028180;28;20037;-83
2023/05/25 12:13:52;;;;;;;5.03;2.08;;;24.50;96.30;;;;;;5028434;28;20036;-84
2023/05/25 12:16:18;;;;;;;3.97;1.83;;;24.80;96.00;;;;;;5032268;28;20029;-84
2023/05/25 12:18:44;;;;;;;4.15;1.90;;;25.50;95.70;;;;;;5032116;28;20040;-84
2023/05/25 12:21:10;;;;;;;4.20;1.77;;;26.40;95.40;;;;;;5032442;28;20052;-83
2023/05/25 12:23:36;;;;;;;3.97;1.70;;;26.30;94.90;;;;;;5075760;28;20158;-84
2023/05/25 12:26:21;;;;;;;6.10;1.90;;;25.60;94.60;;;;;;5063718;28;20036;-83
2023/05/25 12:29:00;;;;;;;4.35;1.70;;;24.80;94.70;;;;;;5074230;28;20851;-84
2023/05/25 12:31:29;;;;;;;5.25;1.83;;;23.90;95.20;;;;;;5059923;28;20032;-84
2023/05/25 12:34:16;;;;;;;5.30;1.70;;;23.30;95.50;;;;;;5074772;28;20067;-84
2023/05/25 12:36:50;;;;;;;3.50;1.58;;;22.90;95.60;;;;;;5058953;28;20032;-84
2023/05/25 12:39:38;;;;;;;5.05;2.15;;;22.50;96.10;;;;;;5077344;28;20107;-85
2023/05/25 12:42:05;;;;;;;4.30;1.75;;;22.60;95.80;;;;;;5073880;28;20027;-87
2023/05/25 12:44:35;;;;;;;5.03;1.80;;;22.90;95.90;;;;;;5063491;28;20043;-85
2023/05/25 12:47:23;;;;;;;4.55;1.63;;;23.60;95.40;;;;;;5073520;28;20489;-86
2023/05/25 12:49:53;;;;;;;6.18;1.90;;;24.60;95.20;;;;;;5058536;28;20086;-87
2023/05/25 12:52:42;;;;;;;5.28;1.98;;;25.60;94.80;;;;;;5063665;28;20028;-86